Quick Links (Output Below):   Max & Min Temps   /   Climate Reports   /   Zone Forecasts
River Forecasts   /   Forestry Forecasts   /   Aviation Forecasts   /   Radars   /   Features

Terminal Aerodrome Forecast (Monticello)

Pick a Site:
Arkadelphia | El Dorado | Fayetteville | Fort Smith | Harrison | Highfill | Hot Springs | Jonesboro
Little Rock | Monticello | Mountain Home | Pine Bluff | Texarkana
 Forecast 

KLLQ 031720Z 0318/0418 34007KT P6SM SCT030 BKN060
     FM040200 VRB04KT P6SM FEW250
     FM041500 27008G15KT P6SM SCT050=


 Latest METARs (Observations) 
How to Decode METARs
20Z KLLQ 031953Z AUTO VRB05KT 10SM FEW047 21/10 A3001 RMK AO2 SLP158
         T02110100
         
19Z KLLQ 031853Z AUTO VRB04KT 10SM FEW042 BKN060 20/09 A3002 RMK AO2
         SLP164 T02000094
         
18Z KLLQ 031753Z AUTO 32007KT 10SM FEW037 BKN049 BKN055 19/11 A3004
         RMK AO2 SLP170 T01940106 10206 20139 58005
         
17Z KLLQ 031653Z AUTO VRB04KT 10SM BKN031 OVC050 19/11 A3005 RMK AO2
         SLP175 T01890111
         
16Z KLLQ 031553Z AUTO VRB05KT 10SM SCT025 SCT033 OVC055 19/12 A3006
         RMK AO2 SLP176 T01890117
         
15Z KLLQ 031453Z AUTO 36007KT 320V030 10SM CLR 18/11 A3005 RMK AO2
         SLP174 T01780111 51012
         
14Z KLLQ 031353Z AUTO 03007KT 10SM BKN050 17/11 A3004 RMK AO2 SLP172
         T01670106
         
13Z KLLQ 031253Z AUTO VRB04KT 10SM BKN050 15/12 A3004 RMK AO2 SLP170
         T01500117
         
12Z KLLQ 031153Z AUTO 00000KT 10SM OVC049 14/12 A3002 RMK AO2 SLP163
         70023 T01390122 10156 20139 53009
         
11Z KLLQ 031053Z AUTO VRB03KT 10SM OVC050 14/12 A3000 RMK AO2 SLP157
         T01390122
         
***** Today's Observations (Above) *****


Back to Main Page
http://www.srh.noaa.gov/lzk/qfcst.php

USA.gov is the U.S. government's official web portal to all federal, state and local government web resources and services.